sensor_id;sensor_type;location;lat;lon;timestamp;pressure;altitude;pressure_sealevel;temperature;humidity
14966;BME280;7577;45.226;5.798;2022-08-02T00:02:20;98065.80;;;24.24;43.53
14966;BME280;7577;45.226;5.798;2022-08-02T00:04:51;98066.91;;;24.33;43.40
14966;BME280;7577;45.226;5.798;2022-08-02T00:07:21;98067.06;;;24.30;43.85
14966;BME280;7577;45.226;5.798;2022-08-02T00:09:51;98064.45;;;24.15;43.96
14966;BME280;7577;45.226;5.798;2022-08-02T00:12:21;98062.52;;;24.32;43.27
14966;BME280;7577;45.226;5.798;2022-08-02T00:14:52;98060.14;;;24.47;43.60
14966;BME280;7577;45.226;5.798;2022-08-02T00:17:23;98055.47;;;24.54;43.08
14966;BME280;7577;45.226;5.798;2022-08-02T00:19:53;98059.44;;;24.53;43.26
14966;BME280;7577;45.226;5.798;2022-08-02T00:22:23;98061.64;;;24.54;43.80
14966;BME280;7577;45.226;5.798;2022-08-02T00:27:41;98065.09;;;24.44;43.46
14966;BME280;7577;45.226;5.798;2022-08-02T00:30:12;98066.62;;;24.41;43.28
14966;BME280;7577;45.226;5.798;2022-08-02T00:32:42;98063.83;;;24.41;43.88
14966;BME280;7577;45.226;5.798;2022-08-02T00:35:12;98064.45;;;24.15;44.71
14966;BME280;7577;45.226;5.798;2022-08-02T00:37:43;98074.23;;;24.05;44.83
14966;BME280;7577;45.226;5.798;2022-08-02T00:40:13;98071.11;;;23.97;44.89
14966;BME280;7577;45.226;5.798;2022-08-02T00:42:43;98076.91;;;23.98;44.93
14966;BME280;7577;45.226;5.798;2022-08-02T00:45:14;98068.30;;;24.07;44.39
14966;BME280;7577;45.226;5.798;2022-08-02T00:47:44;98064.39;;;23.98;44.46
14966;BME280;7577;45.226;5.798;2022-08-02T00:50:14;98068.02;;;23.80;45.21
14966;BME280;7577;45.226;5.798;2022-08-02T00:52:44;98062.86;;;23.69;45.53
14966;BME280;7577;45.226;5.798;2022-08-02T00:55:14;98056.22;;;23.64;45.79
14966;BME280;7577;45.226;5.798;2022-08-02T00:57:44;98055.64;;;23.64;45.64
14966;BME280;7577;45.226;5.798;2022-08-02T01:00:16;98057.16;;;23.84;45.47
14966;BME280;7577;45.226;5.798;2022-08-02T01:02:48;98066.11;;;23.61;45.40
14966;BME280;7577;45.226;5.798;2022-08-02T01:05:18;98062.25;;;23.79;44.98
14966;BME280;7577;45.226;5.798;2022-08-02T01:07:49;98060.52;;;23.71;45.85
14966;BME280;7577;45.226;5.798;2022-08-02T01:10:19;98065.17;;;23.63;46.06
14966;BME280;7577;45.226;5.798;2022-08-02T01:12:49;98065.30;;;23.38;46.72
14966;BME280;7577;45.226;5.798;2022-08-02T01:18:04;98060.42;;;23.32;46.91
14966;BME280;7577;45.226;5.798;2022-08-02T01:23:42;98059.19;;;23.29;46.91
14966;BME280;7577;45.226;5.798;2022-08-02T01:29:19;98058.34;;;23.48;46.92
14966;BME280;7577;45.226;5.798;2022-08-02T01:34:34;98067.41;;;23.45;47.38
14966;BME280;7577;45.226;5.798;2022-08-02T01:37:09;98066.16;;;23.52;46.86
14966;BME280;7577;45.226;5.798;2022-08-02T01:39:41;98066.92;;;23.62;46.31
14966;BME280;7577;45.226;5.798;2022-08-02T01:42:12;98067.13;;;23.63;46.11
14966;BME280;7577;45.226;5.798;2022-08-02T01:44:43;98068.89;;;23.61;46.21
14966;BME280;7577;45.226;5.798;2022-08-02T01:47:17;98072.87;;;23.51;46.81
14966;BME280;7577;45.226;5.798;2022-08-02T01:49:51;98080.44;;;23.41;46.78
14966;BME280;7577;45.226;5.798;2022-08-02T01:52:22;98072.78;;;23.25;47.59
14966;BME280;7577;45.226;5.798;2022-08-02T01:54:57;98072.41;;;23.36;47.28
14966;BME280;7577;45.226;5.798;2022-08-02T01:57:31;98073.13;;;23.42;46.86
14966;BME280;7577;45.226;5.798;2022-08-02T02:00:03;98076.32;;;23.44;47.28
14966;BME280;7577;45.226;5.798;2022-08-02T02:02:37;98072.24;;;23.48;46.71
14966;BME280;7577;45.226;5.798;2022-08-02T02:05:12;98073.39;;;23.47;47.35
14966;BME280;7577;45.226;5.798;2022-08-02T02:07:44;98069.27;;;23.28;47.57
14966;BME280;7577;45.226;5.798;2022-08-02T02:10:18;98070.76;;;22.93;48.04
14966;BME280;7577;45.226;5.798;2022-08-02T02:12:50;98067.83;;;22.96;48.26
14966;BME280;7577;45.226;5.798;2022-08-02T02:17:51;98070.66;;;22.90;48.72
14966;BME280;7577;45.226;5.798;2022-08-02T02:23:05;98063.88;;;23.06;48.34
14966;BME280;7577;45.226;5.798;2022-08-02T02:25:36;98065.20;;;22.84;48.97
14966;BME280;7577;45.226;5.798;2022-08-02T02:30:40;98068.19;;;22.85;49.13
14966;BME280;7577;45.226;5.798;2022-08-02T02:35:53;98062.05;;;22.76;49.42
14966;BME280;7577;45.226;5.798;2022-08-02T02:38:26;98055.55;;;22.49;49.85
14966;BME280;7577;45.226;5.798;2022-08-02T02:40:58;98058.80;;;22.45;49.86
14966;BME280;7577;45.226;5.798;2022-08-02T02:43:31;98059.66;;;22.40;50.20
14966;BME280;7577;45.226;5.798;2022-08-02T02:46:04;98064.75;;;22.63;49.80
14966;BME280;7577;45.226;5.798;2022-08-02T02:48:36;98061.25;;;22.66;49.76
14966;BME280;7577;45.226;5.798;2022-08-02T02:51:07;98056.06;;;22.64;49.84
14966;BME280;7577;45.226;5.798;2022-08-02T02:53:39;98055.97;;;22.70;49.98
14966;BME280;7577;45.226;5.798;2022-08-02T02:56:10;98057.36;;;22.70;50.21
14966;BME280;7577;45.226;5.798;2022-08-02T02:58:41;98050.95;;;22.85;49.81
14966;BME280;7577;45.226;5.798;2022-08-02T03:01:13;98057.17;;;22.88;49.79
14966;BME280;7577;45.226;5.798;2022-08-02T03:04:01;98057.23;;;22.63;50.32
14966;BME280;7577;45.226;5.798;2022-08-02T03:06:32;98056.64;;;22.54;50.73
14966;BME280;7577;45.226;5.798;2022-08-02T03:11:49;98053.54;;;22.40;51.26
14966;BME280;7577;45.226;5.798;2022-08-02T03:14:20;98056.17;;;22.43;50.94
14966;BME280;7577;45.226;5.798;2022-08-02T03:16:53;98060.35;;;22.52;50.32
14966;BME280;7577;45.226;5.798;2022-08-02T03:19:23;98060.16;;;22.36;51.31
14966;BME280;7577;45.226;5.798;2022-08-02T03:21:53;98062.88;;;22.07;51.96
14966;BME280;7577;45.226;5.798;2022-08-02T03:27:05;98059.81;;;22.12;51.86
14966;BME280;7577;45.226;5.798;2022-08-02T03:29:36;98061.48;;;22.32;51.33
14966;BME280;7577;45.226;5.798;2022-08-02T03:32:06;98061.33;;;22.44;51.31
14966;BME280;7577;45.226;5.798;2022-08-02T03:34:37;98065.50;;;22.35;51.37
14966;BME280;7577;45.226;5.798;2022-08-02T03:37:07;98060.47;;;22.40;51.36
14966;BME280;7577;45.226;5.798;2022-08-02T03:42:21;98057.50;;;22.23;51.68
14966;BME280;7577;45.226;5.798;2022-08-02T03:44:53;98065.68;;;22.26;51.42
14966;BME280;7577;45.226;5.798;2022-08-02T03:47:25;98058.92;;;22.33;51.13
14966;BME280;7577;45.226;5.798;2022-08-02T03:49:58;98060.38;;;22.37;51.10
14966;BME280;7577;45.226;5.798;2022-08-02T03:52:29;98060.23;;;22.39;51.27
14966;BME280;7577;45.226;5.798;2022-08-02T03:55:01;98058.17;;;22.27;51.57
14966;BME280;7577;45.226;5.798;2022-08-02T04:00:17;98060.17;;;22.10;52.85
14966;BME280;7577;45.226;5.798;2022-08-02T04:02:49;98062.45;;;22.14;52.58
14966;BME280;7577;45.226;5.798;2022-08-02T04:05:19;98065.00;;;22.13;52.72
14966;BME280;7577;45.226;5.798;2022-08-02T04:07:50;98055.08;;;22.13;52.79
14966;BME280;7577;45.226;5.798;2022-08-02T04:10:20;98060.84;;;22.13;52.13
14966;BME280;7577;45.226;5.798;2022-08-02T04:12:50;98066.38;;;21.88;53.40
14966;BME280;7577;45.226;5.798;2022-08-02T04:18:15;98066.53;;;21.70;54.28
14966;BME280;7577;45.226;5.798;2022-08-02T04:20:48;98074.13;;;21.67;54.16
14966;BME280;7577;45.226;5.798;2022-08-02T04:23:22;98073.89;;;21.57;54.35
14966;BME280;7577;45.226;5.798;2022-08-02T04:28:36;98080.09;;;21.81;54.15
14966;BME280;7577;45.226;5.798;2022-08-02T04:31:07;98075.57;;;21.83;53.87
14966;BME280;7577;45.226;5.798;2022-08-02T04:33:38;98082.18;;;21.78;53.82
14966;BME280;7577;45.226;5.798;2022-08-02T04:36:09;98078.34;;;21.83;53.74
14966;BME280;7577;45.226;5.798;2022-08-02T04:38:42;98084.62;;;21.74;53.88
14966;BME280;7577;45.226;5.798;2022-08-02T04:41:13;98080.58;;;21.77;54.37
14966;BME280;7577;45.226;5.798;2022-08-02T04:43:43;98082.75;;;21.78;54.46
14966;BME280;7577;45.226;5.798;2022-08-02T04:46:13;98090.36;;;21.81;54.31
14966;BME280;7577;45.226;5.798;2022-08-02T04:48:44;98083.75;;;21.85;54.24
14966;BME280;7577;45.226;5.798;2022-08-02T04:51:14;98089.19;;;21.82;54.65
14966;BME280;7577;45.226;5.798;2022-08-02T04:53:44;98094.44;;;21.77;54.73
14966;BME280;7577;45.226;5.798;2022-08-02T04:56:14;98097.99;;;21.78;54.65
14966;BME280;7577;45.226;5.798;2022-08-02T04:58:44;98101.39;;;21.71;54.82
14966;BME280;7577;45.226;5.798;2022-08-02T05:01:14;98103.95;;;21.86;54.45
14966;BME280;7577;45.226;5.798;2022-08-02T05:03:44;98106.36;;;21.87;53.99
14966;BME280;7577;45.226;5.798;2022-08-02T05:06:15;98103.92;;;21.92;54.05
14966;BME280;7577;45.226;5.798;2022-08-02T05:08:46;98107.06;;;22.00;54.07
14966;BME280;7577;45.226;5.798;2022-08-02T05:11:17;98102.41;;;22.04;53.82
14966;BME280;7577;45.226;5.798;2022-08-02T05:13:47;98109.34;;;22.04;54.68
14966;BME280;7577;45.226;5.798;2022-08-02T05:19:01;98113.45;;;22.26;54.37
14966;BME280;7577;45.226;5.798;2022-08-02T05:21:32;98111.42;;;22.32;55.26
14966;BME280;7577;45.226;5.798;2022-08-02T05:24:02;98104.34;;;22.44;55.50
14966;BME280;7577;45.226;5.798;2022-08-02T05:26:32;98107.25;;;22.48;54.98
14966;BME280;7577;45.226;5.798;2022-08-02T05:29:03;98106.97;;;22.53;54.13
14966;BME280;7577;45.226;5.798;2022-08-02T05:34:14;98108.47;;;22.75;54.06
14966;BME280;7577;45.226;5.798;2022-08-02T05:36:45;98119.05;;;23.17;53.37
14966;BME280;7577;45.226;5.798;2022-08-02T05:39:15;98115.33;;;24.28;50.89
14966;BME280;7577;45.226;5.798;2022-08-02T05:41:45;98111.30;;;24.91;48.70
14966;BME280;7577;45.226;5.798;2022-08-02T05:44:16;98115.78;;;25.45;47.03
14966;BME280;7577;45.226;5.798;2022-08-02T05:46:53;98112.48;;;27.00;43.89
14966;BME280;7577;45.226;5.798;2022-08-02T05:49:23;98115.38;;;27.87;41.63
14966;BME280;7577;45.226;5.798;2022-08-02T05:51:57;98107.30;;;28.91;39.36
14966;BME280;7577;45.226;5.798;2022-08-02T05:54:33;98110.87;;;29.91;36.42
14966;BME280;7577;45.226;5.798;2022-08-02T05:59:52;98109.28;;;32.05;32.56
14966;BME280;7577;45.226;5.798;2022-08-02T06:02:28;98109.83;;;32.69;31.62
14966;BME280;7577;45.226;5.798;2022-08-02T06:07:45;98107.67;;;34.90;29.09
14966;BME280;7577;45.226;5.798;2022-08-02T06:13:13;98105.30;;;36.24;26.42
14966;BME280;7577;45.226;5.798;2022-08-02T06:15:44;98102.90;;;37.37;25.26
14966;BME280;7577;45.226;5.798;2022-08-02T06:21:01;98094.41;;;38.96;23.13
14966;BME280;7577;45.226;5.798;2022-08-02T06:26:22;98102.96;;;39.45;22.48
14966;BME280;7577;45.226;5.798;2022-08-02T06:31:48;98104.27;;;37.50;23.55
14966;BME280;7577;45.226;5.798;2022-08-02T06:34:42;98097.39;;;35.74;24.95
14966;BME280;7577;45.226;5.798;2022-08-02T06:40:39;98099.18;;;36.89;24.37
14966;BME280;7577;45.226;5.798;2022-08-02T06:43:15;98096.02;;;37.21;24.16
14966;BME280;7577;45.226;5.798;2022-08-02T06:48:45;98096.02;;;36.70;25.02
14966;BME280;7577;45.226;5.798;2022-08-02T06:57:14;98089.09;;;37.27;24.25
14966;BME280;7577;45.226;5.798;2022-08-02T06:59:55;98088.55;;;37.88;23.77
14966;BME280;7577;45.226;5.798;2022-08-02T07:02:40;98093.34;;;36.42;24.49
14966;BME280;7577;45.226;5.798;2022-08-02T07:08:47;98080.03;;;38.99;23.05
14966;BME280;7577;45.226;5.798;2022-08-02T07:14:47;98086.88;;;37.69;23.80
14966;BME280;7577;45.226;5.798;2022-08-02T07:17:19;98085.27;;;37.68;23.68
14966;BME280;7577;45.226;5.798;2022-08-02T07:22:42;98078.70;;;37.80;23.93
14966;BME280;7577;45.226;5.798;2022-08-02T07:25:39;98081.75;;;36.78;24.36
14966;BME280;7577;45.226;5.798;2022-08-02T07:28:20;98074.30;;;38.72;22.90
14966;BME280;7577;45.226;5.798;2022-08-02T07:33:52;98070.56;;;36.50;25.56
14966;BME280;7577;45.226;5.798;2022-08-02T07:39:14;98061.25;;;37.95;24.19
14966;BME280;7577;45.226;5.798;2022-08-02T07:41:51;98064.12;;;40.07;21.72
14966;BME280;7577;45.226;5.798;2022-08-02T07:44:40;98064.76;;;41.10;20.81
14966;BME280;7577;45.226;5.798;2022-08-02T07:47:24;98060.55;;;41.53;20.81
14966;BME280;7577;45.226;5.798;2022-08-02T07:50:25;98064.75;;;42.50;19.71
14966;BME280;7577;45.226;5.798;2022-08-02T07:59:30;98043.27;;;40.76;20.97
14966;BME280;7577;45.226;5.798;2022-08-02T08:33:43;98021.63;;;40.09;21.47
14966;BME280;7577;45.226;5.798;2022-08-02T08:49:30;98016.33;;;41.44;20.15
14966;BME280;7577;45.226;5.798;2022-08-02T08:57:58;98008.17;;;39.77;21.61
14966;BME280;7577;45.226;5.798;2022-08-02T09:00:42;98015.70;;;39.94;21.82
14966;BME280;7577;45.226;5.798;2022-08-02T09:03:38;98010.69;;;38.66;22.92
14966;BME280;7577;45.226;5.798;2022-08-02T09:12:16;98004.00;;;39.23;22.93
14966;BME280;7577;45.226;5.798;2022-08-02T09:17:58;98003.41;;;39.15;22.16
14966;BME280;7577;45.226;5.798;2022-08-02T09:23:22;98001.34;;;39.33;22.60
14966;BME280;7577;45.226;5.798;2022-08-02T09:26:00;98003.89;;;38.86;22.72
14966;BME280;7577;45.226;5.798;2022-08-02T09:28:37;98003.44;;;36.90;24.22
14966;BME280;7577;45.226;5.798;2022-08-02T09:33:59;98003.20;;;37.01;24.93
14966;BME280;7577;45.226;5.798;2022-08-02T09:36:39;97999.67;;;35.25;26.57
14966;BME280;7577;45.226;5.798;2022-08-02T09:39:14;98004.07;;;35.13;27.18
14966;BME280;7577;45.226;5.798;2022-08-02T09:41:47;98009.09;;;35.92;26.30
14966;BME280;7577;45.226;5.798;2022-08-02T09:44:31;98009.92;;;35.97;26.53
14966;BME280;7577;45.226;5.798;2022-08-02T09:47:03;98008.21;;;35.83;26.51
14966;BME280;7577;45.226;5.798;2022-08-02T09:49:36;98001.11;;;35.04;27.38
14966;BME280;7577;45.226;5.798;2022-08-02T09:52:09;98000.60;;;34.28;28.73
14966;BME280;7577;45.226;5.798;2022-08-02T09:55:05;97996.97;;;34.44;28.97
14966;BME280;7577;45.226;5.798;2022-08-02T09:57:35;97992.91;;;34.81;28.23
14966;BME280;7577;45.226;5.798;2022-08-02T10:00:13;97990.48;;;34.59;28.04
14966;BME280;7577;45.226;5.798;2022-08-02T10:03:07;97994.06;;;34.68;28.14
14966;BME280;7577;45.226;5.798;2022-08-02T10:05:57;97996.34;;;34.44;28.15
14966;BME280;7577;45.226;5.798;2022-08-02T10:08:31;97991.14;;;34.27;28.16
14966;BME280;7577;45.226;5.798;2022-08-02T10:14:15;97988.53;;;33.96;28.31
14966;BME280;7577;45.226;5.798;2022-08-02T10:16:53;97986.10;;;34.18;28.84
14966;BME280;7577;45.226;5.798;2022-08-02T10:22:41;97971.81;;;34.33;28.67
14966;BME280;7577;45.226;5.798;2022-08-02T10:25:13;97977.83;;;34.03;29.04
14966;BME280;7577;45.226;5.798;2022-08-02T10:27:50;97971.80;;;34.09;29.36
14966;BME280;7577;45.226;5.798;2022-08-02T10:30:23;97963.85;;;33.40;29.30
14966;BME280;7577;45.226;5.798;2022-08-02T10:39:12;97958.64;;;33.38;29.58
14966;BME280;7577;45.226;5.798;2022-08-02T10:45:05;97963.87;;;33.80;29.94
14966;BME280;7577;45.226;5.798;2022-08-02T10:47:37;97959.36;;;33.67;29.91
14966;BME280;7577;45.226;5.798;2022-08-02T10:50:14;97953.78;;;33.31;30.09
14966;BME280;7577;45.226;5.798;2022-08-02T10:56:01;97948.25;;;33.60;30.64
14966;BME280;7577;45.226;5.798;2022-08-02T10:59:21;97944.11;;;33.20;30.34
14966;BME280;7577;45.226;5.798;2022-08-02T11:02:31;97945.09;;;33.22;30.23
14966;BME280;7577;45.226;5.798;2022-08-02T11:05:26;97942.72;;;33.28;30.65
14966;BME280;7577;45.226;5.798;2022-08-02T11:10:43;97933.06;;;32.43;31.37
14966;BME280;7577;45.226;5.798;2022-08-02T11:20:26;97912.28;;;32.65;30.98
14966;BME280;7577;45.226;5.798;2022-08-02T11:25:46;97910.47;;;33.02;31.03
14966;BME280;7577;45.226;5.798;2022-08-02T11:31:24;97897.74;;;32.94;30.84
14966;BME280;7577;45.226;5.798;2022-08-02T11:36:51;97898.81;;;32.72;31.32
14966;BME280;7577;45.226;5.798;2022-08-02T11:45:42;97887.53;;;32.92;31.06
14966;BME280;7577;45.226;5.798;2022-08-02T12:14:20;97864.09;;;33.19;31.44
14966;BME280;7577;45.226;5.798;2022-08-02T12:26:00;97860.84;;;33.20;31.04
14966;BME280;7577;45.226;5.798;2022-08-02T12:38:34;97849.50;;;32.88;30.92
14966;BME280;7577;45.226;5.798;2022-08-02T12:58:23;97832.88;;;33.42;32.06
14966;BME280;7577;45.226;5.798;2022-08-02T13:01:03;97827.84;;;33.49;31.13
14966;BME280;7577;45.226;5.798;2022-08-02T13:07:24;97820.98;;;33.43;31.20
14966;BME280;7577;45.226;5.798;2022-08-02T13:12:58;97805.53;;;33.23;32.31
14966;BME280;7577;45.226;5.798;2022-08-02T13:48:58;97779.94;;;34.11;30.98
14966;BME280;7577;45.226;5.798;2022-08-02T13:51:47;97775.98;;;34.09;30.13
14966;BME280;7577;45.226;5.798;2022-08-02T13:54:37;97779.83;;;34.15;30.80
14966;BME280;7577;45.226;5.798;2022-08-02T13:57:26;97773.73;;;34.16;30.34
14966;BME280;7577;45.226;5.798;2022-08-02T14:00:24;97776.16;;;34.22;30.44
14966;BME280;7577;45.226;5.798;2022-08-02T14:02:56;97772.08;;;34.31;30.34
14966;BME280;7577;45.226;5.798;2022-08-02T14:05:46;97774.73;;;34.10;29.78
14966;BME280;7577;45.226;5.798;2022-08-02T14:11:05;97762.48;;;34.00;30.13
14966;BME280;7577;45.226;5.798;2022-08-02T14:13:38;97764.79;;;34.05;31.06
14966;BME280;7577;45.226;5.798;2022-08-02T14:16:18;97761.44;;;34.02;31.12
14966;BME280;7577;45.226;5.798;2022-08-02T14:18:51;97760.16;;;33.91;30.15
14966;BME280;7577;45.226;5.798;2022-08-02T14:21:35;97759.97;;;33.90;30.80
14966;BME280;7577;45.226;5.798;2022-08-02T14:24:02;97756.30;;;34.05;31.17
14966;BME280;7577;45.226;5.798;2022-08-02T14:26:41;97760.68;;;34.14;30.43
14966;BME280;7577;45.226;5.798;2022-08-02T14:29:19;97758.92;;;34.25;30.35
14966;BME280;7577;45.226;5.798;2022-08-02T14:31:50;97756.16;;;34.17;30.09
14966;BME280;7577;45.226;5.798;2022-08-02T14:34:26;97751.20;;;34.21;30.53
14966;BME280;7577;45.226;5.798;2022-08-02T14:39:40;97750.19;;;34.27;30.44
14966;BME280;7577;45.226;5.798;2022-08-02T14:42:21;97744.53;;;34.07;30.64
14966;BME280;7577;45.226;5.798;2022-08-02T14:59:18;97738.41;;;34.49;29.35
14966;BME280;7577;45.226;5.798;2022-08-02T15:43:05;97727.02;;;33.63;29.18
14966;BME280;7577;45.226;5.798;2022-08-02T15:51:23;97733.11;;;33.61;29.30
14966;BME280;7577;45.226;5.798;2022-08-02T15:54:04;97734.77;;;33.67;30.30
14966;BME280;7577;45.226;5.798;2022-08-02T15:56:51;97726.24;;;33.62;30.10
14966;BME280;7577;45.226;5.798;2022-08-02T16:02:19;97717.97;;;33.76;29.12
14966;BME280;7577;45.226;5.798;2022-08-02T16:04:52;97725.84;;;33.76;28.99
14966;BME280;7577;45.226;5.798;2022-08-02T16:07:23;97728.58;;;33.72;28.79
14966;BME280;7577;45.226;5.798;2022-08-02T16:09:56;97725.31;;;33.73;28.81
14966;BME280;7577;45.226;5.798;2022-08-02T16:12:41;97726.72;;;33.73;28.37
14966;BME280;7577;45.226;5.798;2022-08-02T16:29:06;97717.83;;;33.67;28.64
14966;BME280;7577;45.226;5.798;2022-08-02T16:34:22;97716.38;;;33.54;28.56
14966;BME280;7577;45.226;5.798;2022-08-02T16:36:53;97711.45;;;33.50;28.38
14966;BME280;7577;45.226;5.798;2022-08-02T16:39:23;97718.42;;;33.45;28.52
14966;BME280;7577;45.226;5.798;2022-08-02T16:41:54;97714.87;;;33.49;28.47
14966;BME280;7577;45.226;5.798;2022-08-02T16:44:24;97717.42;;;33.52;28.41
14966;BME280;7577;45.226;5.798;2022-08-02T16:47:05;97709.95;;;33.45;28.18
14966;BME280;7577;45.226;5.798;2022-08-02T16:49:41;97711.20;;;33.36;28.38
14966;BME280;7577;45.226;5.798;2022-08-02T16:52:22;97711.91;;;33.40;28.54
14966;BME280;7577;45.226;5.798;2022-08-02T16:54:57;97716.69;;;33.35;28.49
14966;BME280;7577;45.226;5.798;2022-08-02T17:00:14;97711.55;;;33.47;28.44
14966;BME280;7577;45.226;5.798;2022-08-02T17:02:50;97712.11;;;33.42;28.07
14966;BME280;7577;45.226;5.798;2022-08-02T17:08:37;97713.62;;;33.22;28.08
14966;BME280;7577;45.226;5.798;2022-08-02T17:11:07;97718.30;;;33.12;28.13
14966;BME280;7577;45.226;5.798;2022-08-02T17:13:37;97712.28;;;33.10;28.30
14966;BME280;7577;45.226;5.798;2022-08-02T17:19:01;97708.25;;;33.03;28.31
14966;BME280;7577;45.226;5.798;2022-08-02T17:21:39;97708.42;;;32.88;28.49
14966;BME280;7577;45.226;5.798;2022-08-02T17:24:16;97706.41;;;32.81;28.49
14966;BME280;7577;45.226;5.798;2022-08-02T17:29:36;97711.41;;;32.65;28.74
14966;BME280;7577;45.226;5.798;2022-08-02T17:32:08;97714.77;;;32.68;28.74
14966;BME280;7577;45.226;5.798;2022-08-02T17:34:39;97710.09;;;32.62;28.71
14966;BME280;7577;45.226;5.798;2022-08-02T17:39:56;97713.78;;;32.43;28.82
14966;BME280;7577;45.226;5.798;2022-08-02T17:42:30;97721.34;;;32.30;28.92
14966;BME280;7577;45.226;5.798;2022-08-02T17:45:02;97721.72;;;32.20;28.96
14966;BME280;7577;45.226;5.798;2022-08-02T17:47:33;97716.95;;;32.17;29.64
14966;BME280;7577;45.226;5.798;2022-08-02T17:50:04;97722.35;;;32.00;29.20
14966;BME280;7577;45.226;5.798;2022-08-02T18:05:40;97726.30;;;31.56;30.28
14966;BME280;7577;45.226;5.798;2022-08-02T18:10:54;97713.63;;;31.44;29.93
14966;BME280;7577;45.226;5.798;2022-08-02T18:13:26;97717.83;;;31.36;30.02
14966;BME280;7577;45.226;5.798;2022-08-02T18:15:59;97714.66;;;31.23;30.19
14966;BME280;7577;45.226;5.798;2022-08-02T18:18:30;97713.13;;;31.18;30.50
14966;BME280;7577;45.226;5.798;2022-08-02T18:23:43;97716.13;;;31.08;30.49
14966;BME280;7577;45.226;5.798;2022-08-02T18:26:13;97713.67;;;30.98;30.60
14966;BME280;7577;45.226;5.798;2022-08-02T18:28:44;97720.11;;;30.99;30.61
14966;BME280;7577;45.226;5.798;2022-08-02T18:33:55;97718.80;;;31.03;30.66
14966;BME280;7577;45.226;5.798;2022-08-02T18:36:27;97720.78;;;30.95;31.15
14966;BME280;7577;45.226;5.798;2022-08-02T18:38:57;97727.74;;;30.87;32.05
14966;BME280;7577;45.226;5.798;2022-08-02T18:41:28;97733.12;;;30.78;32.23
14966;BME280;7577;45.226;5.798;2022-08-02T18:43:59;97731.05;;;30.67;32.78
14966;BME280;7577;45.226;5.798;2022-08-02T18:46:31;97731.38;;;30.46;34.37
14966;BME280;7577;45.226;5.798;2022-08-02T18:49:01;97734.94;;;30.23;34.84
14966;BME280;7577;45.226;5.798;2022-08-02T18:51:32;97733.09;;;30.13;33.95
14966;BME280;7577;45.226;5.798;2022-08-02T18:54:02;97735.36;;;30.07;34.00
14966;BME280;7577;45.226;5.798;2022-08-02T18:56:33;97735.77;;;30.05;34.15
14966;BME280;7577;45.226;5.798;2022-08-02T19:01:32;97744.75;;;29.93;34.92
14966;BME280;7577;45.226;5.798;2022-08-02T19:04:03;97747.51;;;29.82;35.00
14966;BME280;7577;45.226;5.798;2022-08-02T19:06:33;97753.95;;;29.79;34.00
14966;BME280;7577;45.226;5.798;2022-08-02T19:09:04;97752.61;;;29.75;35.58
14966;BME280;7577;45.226;5.798;2022-08-02T19:11:34;97755.81;;;29.59;36.12
14966;BME280;7577;45.226;5.798;2022-08-02T19:16:52;97756.47;;;29.33;36.36
14966;BME280;7577;45.226;5.798;2022-08-02T19:19:22;97754.86;;;29.13;37.00
14966;BME280;7577;45.226;5.798;2022-08-02T19:21:52;97769.00;;;28.96;37.23
14966;BME280;7577;45.226;5.798;2022-08-02T19:24:25;97769.48;;;28.87;37.27
14966;BME280;7577;45.226;5.798;2022-08-02T19:29:35;97771.02;;;28.95;37.07
14966;BME280;7577;45.226;5.798;2022-08-02T19:32:07;97779.44;;;28.92;37.04
14966;BME280;7577;45.226;5.798;2022-08-02T19:37:31;97778.34;;;28.82;37.63
14966;BME280;7577;45.226;5.798;2022-08-02T19:40:02;97785.72;;;28.59;37.83
14966;BME280;7577;45.226;5.798;2022-08-02T19:42:32;97789.98;;;28.48;38.08
14966;BME280;7577;45.226;5.798;2022-08-02T19:45:03;97789.18;;;28.48;38.11
14966;BME280;7577;45.226;5.798;2022-08-02T19:47:36;97793.20;;;28.40;38.29
14966;BME280;7577;45.226;5.798;2022-08-02T19:50:08;97796.70;;;28.25;38.83
14966;BME280;7577;45.226;5.798;2022-08-02T19:52:40;97799.91;;;28.20;38.94
14966;BME280;7577;45.226;5.798;2022-08-02T19:55:11;97806.77;;;28.12;38.71
14966;BME280;7577;45.226;5.798;2022-08-02T19:57:42;97810.80;;;28.04;38.79
14966;BME280;7577;45.226;5.798;2022-08-02T20:00:13;97805.84;;;27.93;38.50
14966;BME280;7577;45.226;5.798;2022-08-02T20:02:43;97811.25;;;27.92;38.79
14966;BME280;7577;45.226;5.798;2022-08-02T20:05:16;97808.03;;;28.01;38.57
14966;BME280;7577;45.226;5.798;2022-08-02T20:10:30;97815.68;;;27.86;39.17
14966;BME280;7577;45.226;5.798;2022-08-02T20:13:01;97823.09;;;27.81;39.36
14966;BME280;7577;45.226;5.798;2022-08-02T20:15:31;97826.67;;;27.81;39.45
14966;BME280;7577;45.226;5.798;2022-08-02T20:20:45;97822.27;;;27.73;39.40
14966;BME280;7577;45.226;5.798;2022-08-02T20:23:15;97829.11;;;27.51;39.78
14966;BME280;7577;45.226;5.798;2022-08-02T20:25:47;97834.73;;;27.37;40.24
14966;BME280;7577;45.226;5.798;2022-08-02T20:28:20;97833.76;;;27.29;40.05
14966;BME280;7577;45.226;5.798;2022-08-02T20:30:50;97828.36;;;27.30;40.37
14966;BME280;7577;45.226;5.798;2022-08-02T20:33:20;97830.55;;;27.27;40.19
14966;BME280;7577;45.226;5.798;2022-08-02T20:38:32;97837.34;;;27.19;40.40
14966;BME280;7577;45.226;5.798;2022-08-02T20:41:04;97845.32;;;27.13;40.57
14966;BME280;7577;45.226;5.798;2022-08-02T20:56:55;97857.08;;;26.92;41.15
14966;BME280;7577;45.226;5.798;2022-08-02T21:02:09;97858.67;;;26.89;41.13
14966;BME280;7577;45.226;5.798;2022-08-02T21:04:39;97862.66;;;26.78;41.48
14966;BME280;7577;45.226;5.798;2022-08-02T21:09:49;97853.08;;;26.93;41.65
14966;BME280;7577;45.226;5.798;2022-08-02T21:12:20;97856.28;;;26.84;41.88
14966;BME280;7577;45.226;5.798;2022-08-02T21:17:33;97854.06;;;26.66;41.74
14966;BME280;7577;45.226;5.798;2022-08-02T21:20:05;97859.42;;;26.58;41.47
14966;BME280;7577;45.226;5.798;2022-08-02T21:22:35;97858.45;;;26.60;41.45
14966;BME280;7577;45.226;5.798;2022-08-02T21:25:07;97855.28;;;26.76;41.00
14966;BME280;7577;45.226;5.798;2022-08-02T21:27:38;97862.09;;;26.89;40.85
14966;BME280;7577;45.226;5.798;2022-08-02T21:30:10;97861.27;;;26.88;40.55
14966;BME280;7577;45.226;5.798;2022-08-02T21:32:41;97869.66;;;26.92;40.40
14966;BME280;7577;45.226;5.798;2022-08-02T21:37:51;97859.47;;;26.76;41.61
14966;BME280;7577;45.226;5.798;2022-08-02T21:43:05;97867.51;;;26.36;42.11